createdAt,value
2023-03-17T00:21:39.320Z,371.00
2023-03-17T00:22:39.313Z,372.00
2023-03-17T00:23:39.259Z,373.00
2023-03-17T00:24:39.246Z,372.00
2023-03-17T00:25:39.213Z,370.00
2023-03-17T00:26:39.186Z,371.00
2023-03-17T00:27:39.165Z,369.00
2023-03-17T00:28:39.134Z,368.00
2023-03-17T00:29:39.099Z,371.00
2023-03-17T00:30:39.070Z,371.00
2023-03-17T00:31:39.325Z,371.00
2023-03-17T00:32:39.070Z,371.00
2023-03-17T00:33:38.992Z,370.00
2023-03-17T00:34:38.958Z,371.00
2023-03-17T00:35:38.951Z,369.00
2023-03-17T00:36:38.907Z,365.00
2023-03-17T00:37:38.926Z,363.00
2023-03-17T00:38:38.862Z,361.00
2023-03-17T00:39:38.827Z,359.00
2023-03-17T00:40:38.808Z,359.00
2023-03-17T00:41:38.787Z,359.00
2023-03-17T00:42:38.767Z,361.00
2023-03-17T00:49:38.596Z,360.00
2023-03-17T00:50:38.572Z,359.00
2023-03-17T00:51:38.542Z,359.00
2023-03-17T00:52:38.524Z,359.00
2023-03-17T00:53:38.504Z,358.00
2023-03-17T00:54:38.497Z,356.00
2023-03-17T00:55:38.465Z,356.00
2023-03-17T00:56:38.435Z,355.00
2023-03-17T00:57:38.410Z,355.00
2023-03-17T00:58:38.382Z,356.00
2023-03-17T00:59:38.394Z,356.00
2023-03-17T01:00:38.388Z,354.00
2023-03-17T01:01:38.330Z,353.00
2023-03-17T01:02:38.275Z,352.00
2023-03-17T01:03:38.245Z,352.00
2023-03-17T01:04:38.213Z,355.00
2023-03-17T01:05:38.202Z,353.00
2023-03-17T01:06:38.166Z,354.00
2023-03-17T01:07:38.149Z,353.00
2023-03-17T01:08:38.117Z,354.00
2023-03-17T01:09:38.079Z,353.00
2023-03-17T01:10:38.050Z,354.00
2023-03-17T01:11:38.039Z,354.00
2023-03-17T01:12:38.009Z,351.00
2023-03-17T01:13:37.975Z,351.00
2023-03-17T01:14:38.186Z,350.00
2023-03-17T01:15:37.923Z,351.00
2023-03-17T01:16:37.951Z,353.00
2023-03-17T01:17:37.873Z,353.00
2023-03-17T01:18:37.870Z,353.00
2023-03-17T01:19:37.813Z,353.00
2023-03-17T01:20:37.781Z,354.00
2023-03-17T01:21:37.761Z,355.00
2023-03-17T01:22:37.754Z,354.00
2023-03-17T01:23:37.720Z,353.00
2023-03-17T01:32:38.133Z,350.00
2023-03-17T03:39:34.203Z,338.00
2023-03-17T03:43:33.751Z,338.00
2023-03-17T03:44:33.727Z,339.00
2023-03-17T03:45:33.735Z,342.00
2023-03-17T03:46:33.716Z,342.00
2023-03-17T03:47:33.657Z,342.00
2023-03-17T03:48:33.634Z,342.00
2023-03-17T03:49:33.623Z,343.00
2023-03-17T03:50:33.601Z,342.00
2023-03-17T03:51:33.581Z,343.00
2023-03-17T03:52:33.539Z,343.00
2023-03-17T03:53:33.529Z,342.00
2023-03-17T03:54:33.494Z,341.00
2023-03-17T03:55:33.476Z,339.00
2023-03-17T03:56:33.462Z,339.00
2023-03-17T03:57:33.418Z,340.00
2023-03-17T03:58:33.390Z,340.00
2023-03-17T03:59:33.358Z,337.00
2023-03-17T04:00:33.392Z,338.00
2023-03-17T04:01:33.292Z,338.00
2023-03-17T04:02:33.299Z,336.00
2023-03-17T04:03:33.228Z,335.00
2023-03-17T04:04:33.227Z,336.00
2023-03-17T04:05:33.174Z,337.00
2023-03-17T04:06:33.134Z,338.00
2023-03-17T04:07:33.105Z,338.00
2023-03-17T04:08:33.074Z,340.00
2023-03-17T04:09:33.046Z,341.00
2023-03-17T04:10:33.156Z,337.00
2023-03-17T04:11:32.992Z,338.00
2023-03-17T04:12:32.975Z,336.00
2023-03-17T04:13:32.937Z,335.00
2023-03-17T04:14:32.904Z,335.00
2023-03-17T04:15:32.872Z,335.00
2023-03-17T04:16:32.887Z,335.00
2023-03-17T04:17:32.826Z,336.00
2023-03-17T04:18:32.839Z,333.00
2023-03-17T04:19:32.778Z,330.00
2023-03-17T04:20:33.206Z,330.00
2023-03-17T04:21:32.733Z,330.00
2023-03-17T04:22:32.678Z,330.00
2023-03-17T04:23:32.661Z,332.00
2023-03-17T04:24:32.634Z,333.00
2023-03-17T04:25:32.608Z,333.00
2023-03-17T04:26:32.571Z,333.00
2023-03-17T04:27:32.571Z,331.00
2023-03-17T04:28:32.525Z,331.00
2023-03-17T04:29:32.517Z,333.00
2023-03-17T04:30:32.926Z,332.00
2023-03-17T04:31:32.487Z,332.00
2023-03-17T04:32:32.454Z,331.00
2023-03-17T04:33:32.413Z,332.00
2023-03-17T04:34:32.390Z,333.00
2023-03-17T04:35:32.428Z,334.00
2023-03-17T04:36:32.337Z,334.00
2023-03-17T04:37:34.549Z,333.00
2023-03-17T04:38:32.281Z,332.00
2023-03-17T04:39:32.248Z,330.00
2023-03-17T04:40:32.484Z,332.00
2023-03-17T04:41:32.193Z,331.00
2023-03-17T04:42:32.169Z,330.00
2023-03-17T04:43:32.135Z,331.00
2023-03-17T04:44:32.111Z,329.00
2023-03-17T04:45:32.170Z,331.00
2023-03-17T04:46:32.049Z,329.00
2023-03-17T04:47:32.013Z,328.00
2023-03-17T04:48:31.979Z,329.00
2023-03-17T04:49:31.956Z,331.00
2023-03-17T04:50:32.241Z,329.00
2023-03-17T04:51:31.900Z,329.00
2023-03-17T04:52:31.852Z,330.00
2023-03-17T04:53:31.844Z,329.00
2023-03-17T04:54:31.795Z,329.00
2023-03-17T04:55:31.782Z,326.00
2023-03-17T04:56:32.178Z,324.00
2023-03-17T04:57:31.728Z,324.00
2023-03-17T04:58:31.694Z,326.00
2023-03-17T04:59:31.664Z,327.00
2023-03-17T05:00:31.971Z,326.00
2023-03-17T05:01:31.619Z,327.00
2023-03-17T05:02:31.607Z,328.00
2023-03-17T05:03:31.578Z,329.00
2023-03-17T05:04:32.467Z,331.00
2023-03-17T05:05:31.521Z,330.00
2023-03-17T05:06:31.498Z,330.00
2023-03-17T05:07:33.984Z,327.00
2023-03-17T05:08:31.662Z,327.00
2023-03-17T05:09:31.629Z,328.00
2023-03-17T05:10:31.994Z,328.00
2023-03-17T05:11:31.600Z,328.00
2023-03-17T05:12:31.565Z,323.00
2023-03-17T05:13:31.556Z,325.00
2023-03-17T05:14:31.522Z,324.00
2023-03-17T05:15:31.522Z,322.00
2023-03-17T05:16:31.538Z,323.00
2023-03-17T05:17:31.469Z,324.00
2023-03-17T05:18:31.468Z,327.00
2023-03-17T05:19:31.408Z,326.00
2023-03-17T05:20:31.726Z,326.00
2023-03-17T05:21:31.349Z,327.00
2023-03-17T05:22:31.338Z,328.00
2023-03-17T05:23:31.292Z,327.00
2023-03-17T05:24:31.279Z,327.00
2023-03-17T05:25:31.254Z,326.00
2023-03-17T05:26:31.221Z,329.00
2023-03-17T05:27:31.231Z,329.00
2023-03-17T05:28:31.177Z,330.00
2023-03-17T05:29:31.142Z,328.00
2023-03-17T05:30:31.497Z,329.00
2023-03-17T05:31:31.168Z,327.00
2023-03-17T05:32:31.125Z,325.00
2023-03-17T05:33:31.057Z,323.00
2023-03-17T05:34:31.021Z,323.00
2023-03-17T05:35:31.048Z,324.00
2023-03-17T05:36:31.010Z,327.00
2023-03-17T05:37:30.949Z,326.00
2023-03-17T05:38:30.915Z,325.00
2023-03-17T05:39:30.887Z,325.00
2023-03-17T05:40:31.129Z,324.00
2023-03-17T05:41:30.825Z,323.00
2023-03-17T05:42:30.786Z,322.00
2023-03-17T05:43:30.747Z,322.00
2023-03-17T05:44:30.725Z,321.00
2023-03-17T05:45:30.683Z,325.00
2023-03-17T05:46:30.727Z,325.00
2023-03-17T05:47:30.609Z,324.00
2023-03-17T05:48:30.576Z,322.00
2023-03-17T05:49:30.541Z,323.00
2023-03-17T05:50:30.711Z,325.00
2023-03-17T05:51:30.503Z,328.00
2023-03-17T05:52:30.450Z,327.00
2023-03-17T05:53:30.400Z,327.00
2023-03-17T05:54:30.374Z,324.00
2023-03-17T05:55:30.343Z,324.00
2023-03-17T05:56:30.318Z,324.00
2023-03-17T05:57:30.280Z,323.00
2023-03-17T05:58:30.249Z,325.00
2023-03-17T05:59:30.202Z,325.00
2023-03-17T06:00:30.533Z,322.00
2023-03-17T06:01:30.141Z,320.00
2023-03-17T06:02:30.124Z,319.00
2023-03-17T06:03:30.157Z,319.00
2023-03-17T06:04:30.044Z,319.00
2023-03-17T06:05:30.009Z,321.00
2023-03-17T06:06:29.980Z,318.00
2023-03-17T06:07:44.650Z,319.00
2023-03-17T06:08:30.913Z,317.00
2023-03-17T06:09:29.896Z,316.00
2023-03-17T06:10:30.201Z,314.00
2023-03-17T06:11:29.791Z,314.00
2023-03-17T06:12:29.784Z,314.00
2023-03-17T06:13:29.750Z,312.00
2023-03-17T06:14:29.694Z,312.00
2023-03-17T06:15:29.962Z,313.00
2023-03-17T06:16:29.619Z,314.00
2023-03-17T06:17:29.592Z,311.00
2023-03-17T06:18:29.553Z,313.00
2023-03-17T06:19:29.526Z,311.00
2023-03-17T06:20:29.490Z,310.00
2023-03-17T06:21:29.452Z,309.00
2023-03-17T06:22:29.424Z,306.00
2023-03-17T06:23:29.393Z,305.00
2023-03-17T06:24:29.360Z,305.00
2023-03-17T06:25:29.673Z,306.00
2023-03-17T06:26:29.298Z,308.00
2023-03-17T06:27:29.249Z,309.00
2023-03-17T06:28:29.226Z,310.00
2023-03-17T06:29:29.189Z,314.00
2023-03-17T06:30:29.164Z,312.00
2023-03-17T06:31:29.153Z,320.00
2023-03-17T06:32:29.152Z,325.00
2023-03-17T06:33:29.076Z,338.00
2023-03-17T06:34:29.011Z,473.00
2023-03-17T06:35:29.242Z,478.00
2023-03-17T06:36:28.955Z,512.00
2023-03-17T06:37:28.898Z,518.00
2023-03-17T06:38:28.873Z,521.00
2023-03-17T06:39:28.820Z,546.00
2023-03-17T06:40:28.788Z,590.00
2023-03-17T06:41:28.756Z,596.00
2023-03-17T06:42:28.733Z,597.00
2023-03-17T06:43:28.682Z,620.00
2023-03-17T06:44:28.773Z,639.00
2023-03-17T06:45:28.875Z,785.00
2023-03-17T06:46:28.653Z,781.00
2023-03-17T06:47:28.568Z,871.00
2023-03-17T06:48:28.525Z,921.00
2023-03-17T06:49:28.496Z,1005.00
2023-03-17T06:50:28.467Z,1037.00
2023-03-17T06:51:28.436Z,1035.00
2023-03-17T06:52:28.401Z,1008.00
2023-03-17T06:53:28.337Z,987.00
2023-03-17T06:54:28.291Z,985.00
2023-03-17T06:55:28.515Z,997.00
2023-03-17T06:56:30.462Z,1006.00
2023-03-17T06:57:28.289Z,1023.00
2023-03-17T06:58:28.272Z,1032.00
2023-03-17T06:59:28.118Z,1056.00
2023-03-17T07:00:28.104Z,1068.00
2023-03-17T07:01:28.114Z,1085.00
2023-03-17T07:02:28.075Z,1109.00
2023-03-17T07:03:27.950Z,1125.00
2023-03-17T07:04:27.942Z,1142.00
2023-03-17T07:05:27.907Z,1149.00
2023-03-17T07:06:27.843Z,1156.00
2023-03-17T07:07:27.813Z,1173.00
2023-03-17T07:08:28.045Z,1184.00
2023-03-17T07:28:26.909Z,1425.00
2023-03-17T07:29:26.872Z,1437.00
2023-03-17T07:30:26.832Z,1447.00
2023-03-17T07:31:26.835Z,1453.00
2023-03-17T07:33:26.776Z,1470.00
2023-03-17T07:34:26.703Z,1481.00
2023-03-17T07:35:26.677Z,1492.00
2023-03-17T07:36:26.611Z,1501.00
2023-03-17T07:37:26.542Z,1510.00
2023-03-17T07:38:26.559Z,1522.00
2023-03-17T07:39:26.506Z,1519.00
2023-03-17T07:40:26.443Z,1517.00
2023-03-17T07:41:26.444Z,1534.00
2023-03-17T07:42:26.375Z,1545.00
2023-03-17T07:43:26.346Z,1535.00
2023-03-17T07:44:26.308Z,1523.00
2023-03-17T07:45:26.369Z,1511.00
2023-03-17T07:46:26.318Z,1468.00
2023-03-17T07:47:26.192Z,1418.00
2023-03-17T07:48:26.157Z,1376.00
2023-03-17T07:49:40.381Z,1328.00
2023-03-17T07:50:27.127Z,1252.00
2023-03-17T07:51:26.045Z,1182.00
2023-03-17T07:52:26.064Z,1127.00
2023-03-17T07:53:25.990Z,1104.00
2023-03-17T07:54:25.950Z,1038.00
2023-03-17T07:55:25.958Z,1019.00
2023-03-17T07:56:25.885Z,1009.00
2023-03-17T07:57:25.913Z,979.00
2023-03-17T07:58:25.914Z,974.00
2023-03-17T07:59:25.800Z,959.00
2023-03-17T08:00:25.793Z,941.00
2023-03-17T08:01:25.747Z,929.00
2023-03-17T08:02:25.733Z,905.00
2023-03-17T08:03:25.716Z,887.00
2023-03-17T08:04:25.624Z,878.00
2023-03-17T08:05:25.586Z,873.00
2023-03-17T08:06:25.566Z,862.00
2023-03-17T08:07:25.512Z,850.00
2023-03-17T08:08:25.498Z,830.00
2023-03-17T08:09:25.434Z,833.00
2023-03-17T08:10:25.450Z,832.00
2023-03-17T08:11:26.474Z,823.00
2023-03-17T08:12:25.340Z,815.00
2023-03-17T08:13:25.330Z,792.00
2023-03-17T08:14:25.272Z,780.00
2023-03-17T08:15:25.244Z,775.00
2023-03-17T08:16:25.221Z,770.00
2023-03-17T08:17:25.169Z,764.00
2023-03-17T08:18:25.131Z,758.00
2023-03-17T08:19:25.142Z,751.00
2023-03-17T08:20:25.180Z,745.00
2023-03-17T08:21:25.030Z,737.00
2023-03-17T08:22:25.007Z,732.00
2023-03-17T08:23:25.797Z,729.00
2023-03-17T08:24:24.906Z,723.00
2023-03-17T08:25:24.897Z,718.00
2023-03-17T08:26:24.847Z,713.00
2023-03-17T08:27:24.845Z,707.00
2023-03-17T08:28:24.809Z,702.00
2023-03-17T08:29:24.750Z,697.00
2023-03-17T08:30:24.715Z,693.00
2023-03-17T08:31:24.732Z,687.00
2023-03-17T08:32:24.893Z,679.00
2023-03-17T08:33:24.618Z,673.00
2023-03-17T08:34:24.974Z,670.00
2023-03-17T08:35:24.622Z,666.00
2023-03-17T08:36:24.513Z,659.00
2023-03-17T08:37:24.484Z,691.00
2023-03-17T08:38:24.524Z,766.00
2023-03-17T08:39:24.450Z,796.00
2023-03-17T08:40:24.397Z,714.00
2023-03-17T08:41:24.372Z,595.00
2023-03-17T08:42:24.352Z,551.00
2023-03-17T08:43:24.322Z,541.00
2023-03-17T08:44:25.281Z,534.00
2023-03-17T08:45:24.326Z,590.00
2023-03-17T08:46:24.528Z,582.00
2023-03-17T08:47:24.268Z,585.00
2023-03-17T08:48:24.200Z,591.00
2023-03-17T08:49:24.282Z,614.00
2023-03-17T08:50:24.201Z,662.00
2023-03-17T08:51:24.664Z,699.00
2023-03-17T08:52:24.241Z,716.00
2023-03-17T08:53:24.713Z,755.00
2023-03-17T08:54:24.046Z,796.00
2023-03-17T08:55:24.208Z,811.00
2023-03-17T08:56:24.278Z,819.00
2023-03-17T08:57:24.309Z,829.00
2023-03-17T08:58:23.978Z,838.00
2023-03-17T08:59:24.391Z,855.00
2023-03-17T09:00:23.900Z,873.00
2023-03-17T09:01:23.951Z,909.00
2023-03-17T09:02:24.087Z,920.00
2023-03-17T09:03:23.847Z,927.00
2023-03-17T09:04:23.783Z,936.00
2023-03-17T09:05:23.751Z,956.00
2023-03-17T09:06:23.732Z,963.00
2023-03-17T09:07:23.669Z,998.00
2023-03-17T09:08:23.654Z,1012.00
2023-03-17T09:09:23.687Z,1028.00
2023-03-17T09:10:25.260Z,1075.00
2023-03-17T09:11:23.560Z,1091.00
2023-03-17T09:12:23.528Z,1109.00
2023-03-17T09:13:23.465Z,1126.00
2023-03-17T09:14:23.461Z,1141.00
2023-03-17T09:15:23.425Z,1148.00
2023-03-17T09:16:23.462Z,1157.00
2023-03-17T09:17:23.360Z,1168.00
2023-03-17T09:18:23.327Z,1182.00
2023-03-17T09:19:23.288Z,1199.00
2023-03-17T09:20:23.267Z,1207.00
2023-03-17T09:21:23.257Z,1222.00
2023-03-17T09:22:23.241Z,1240.00
2023-03-17T09:23:23.123Z,1283.00
2023-03-17T09:24:23.155Z,1294.00
2023-03-17T09:25:23.056Z,1298.00
2023-03-17T09:26:23.029Z,1302.00
2023-03-17T09:27:22.986Z,1314.00
2023-03-17T09:28:22.965Z,1330.00
2023-03-17T09:29:22.940Z,1333.00
2023-03-17T09:30:22.958Z,1331.00
2023-03-17T09:31:23.027Z,1324.00
2023-03-17T09:32:22.803Z,1283.00
2023-03-17T09:33:22.760Z,1184.00
2023-03-17T09:34:22.863Z,1185.00
2023-03-17T09:35:22.673Z,1178.00
2023-03-17T09:36:22.657Z,1108.00
2023-03-17T09:37:22.607Z,1088.00
2023-03-17T09:38:22.608Z,1035.00
2023-03-17T09:39:22.539Z,1010.00
2023-03-17T09:40:22.530Z,1009.00
2023-03-17T09:41:22.547Z,1001.00
2023-03-17T09:42:22.435Z,986.00
2023-03-17T09:43:22.419Z,959.00
2023-03-17T09:44:23.245Z,947.00
2023-03-17T09:45:22.347Z,940.00
2023-03-17T09:46:22.453Z,926.00
2023-03-17T09:47:22.287Z,889.00
2023-03-17T09:48:22.254Z,885.00
2023-03-17T09:49:22.350Z,956.00
2023-03-17T09:50:22.193Z,979.00
2023-03-17T09:51:22.243Z,1045.00
2023-03-17T09:52:22.152Z,1058.00
2023-03-17T09:53:22.113Z,1133.00
2023-03-17T09:54:22.090Z,1147.00
2023-03-17T09:55:22.049Z,1096.00
2023-03-17T09:56:22.018Z,1066.00
2023-03-17T09:57:21.961Z,1090.00
2023-03-17T09:58:21.993Z,1125.00
2023-03-17T09:59:21.893Z,1130.00
2023-03-17T10:00:22.753Z,1131.00
2023-03-17T10:01:21.840Z,1142.00
2023-03-17T10:02:22.071Z,1140.00
2023-03-17T10:03:21.786Z,1139.00
2023-03-17T10:04:21.850Z,1135.00
2023-03-17T10:05:21.765Z,1125.00
2023-03-17T10:06:21.654Z,1131.00
2023-03-17T10:07:21.621Z,1142.00
2023-03-17T10:08:30.745Z,1145.00
2023-03-17T10:09:25.421Z,1137.00
2023-03-17T10:10:21.627Z,1137.00
2023-03-17T10:11:21.777Z,1146.00
2023-03-17T10:12:21.474Z,1156.00
2023-03-17T10:13:21.398Z,1157.00
2023-03-17T10:14:21.367Z,1161.00
2023-03-17T10:15:21.346Z,1157.00
2023-03-17T10:16:21.361Z,1164.00
2023-03-17T10:17:21.333Z,1172.00
2023-03-17T10:18:21.233Z,1174.00
2023-03-17T10:19:21.208Z,1176.00
2023-03-17T10:20:21.223Z,1182.00
2023-03-17T10:21:21.164Z,1188.00
2023-03-17T10:22:21.101Z,1193.00
2023-03-17T10:23:21.072Z,1201.00
2023-03-17T10:24:21.036Z,1185.00
2023-03-17T10:25:21.006Z,1165.00
2023-03-17T10:26:20.977Z,1163.00
2023-03-17T10:27:20.947Z,1175.00
2023-03-17T10:28:20.918Z,1179.00
2023-03-17T10:29:20.866Z,1178.00
2023-03-17T10:30:20.880Z,1177.00
2023-03-17T10:31:20.818Z,1180.00
2023-03-17T10:32:20.765Z,1196.00
2023-03-17T10:33:20.744Z,1206.00
2023-03-17T10:34:20.741Z,1213.00
2023-03-17T10:35:20.660Z,1213.00
2023-03-17T10:36:20.617Z,1216.00
2023-03-17T10:37:20.733Z,1221.00
2023-03-17T10:38:20.550Z,1214.00
2023-03-17T10:39:20.526Z,1211.00
2023-03-17T10:40:20.553Z,1207.00
2023-03-17T10:41:20.457Z,1214.00
2023-03-17T10:42:20.425Z,1224.00
2023-03-17T10:43:20.508Z,1227.00
2023-03-17T10:44:20.357Z,1205.00
2023-03-17T10:45:20.319Z,1311.00
2023-03-17T10:46:22.332Z,1330.00
2023-03-17T10:47:20.263Z,1340.00
2023-03-17T10:48:20.227Z,1338.00
2023-03-17T10:49:20.196Z,1350.00
2023-03-17T10:50:20.320Z,1360.00
2023-03-17T10:51:20.193Z,1371.00
2023-03-17T10:52:20.095Z,1412.00
2023-03-17T10:53:20.088Z,1431.00
2023-03-17T10:54:20.054Z,1448.00
2023-03-17T10:55:20.001Z,1461.00
2023-03-17T10:56:20.041Z,1472.00
2023-03-17T10:57:19.947Z,1482.00
2023-03-17T10:58:19.902Z,1494.00
2023-03-17T10:59:19.940Z,1507.00
2023-03-17T11:00:19.858Z,1518.00
2023-03-17T11:01:19.838Z,1534.00
2023-03-17T11:02:19.775Z,1572.00
2023-03-17T11:03:19.706Z,1584.00
2023-03-17T11:04:19.830Z,1590.00
2023-03-17T11:05:19.640Z,1600.00
2023-03-17T11:06:19.663Z,1637.00
2023-03-17T11:07:19.556Z,1636.00
2023-03-17T11:08:19.602Z,1632.00
2023-03-17T11:09:19.503Z,1634.00
2023-03-17T11:10:19.463Z,1642.00
2023-03-17T11:11:20.624Z,1664.00
2023-03-17T11:12:19.375Z,1671.00
2023-03-17T11:13:19.351Z,1680.00
2023-03-17T11:14:23.943Z,1677.00
2023-03-17T11:15:19.277Z,1682.00
2023-03-17T11:16:19.309Z,1695.00
2023-03-17T11:17:19.204Z,1697.00
2023-03-17T11:18:19.208Z,1700.00
2023-03-17T11:19:19.187Z,1707.00
2023-03-17T11:20:19.111Z,1722.00
2023-03-17T11:21:19.098Z,1735.00
2023-03-17T11:22:19.029Z,1748.00
2023-03-17T11:23:19.049Z,1751.00
2023-03-17T11:24:18.956Z,1752.00
2023-03-17T11:25:18.944Z,1751.00
2023-03-17T11:26:18.862Z,1755.00
2023-03-17T11:27:18.816Z,1764.00
2023-03-17T11:28:18.787Z,1769.00
2023-03-17T11:29:18.744Z,1775.00
2023-03-17T11:30:18.686Z,1774.00
2023-03-17T11:31:18.676Z,1777.00
2023-03-17T11:32:18.596Z,1795.00
2023-03-17T11:33:18.595Z,1791.00
2023-03-17T11:34:18.547Z,1803.00
2023-03-17T11:35:18.527Z,1804.00
2023-03-17T11:36:18.462Z,1809.00
2023-03-17T11:37:18.494Z,1820.00
2023-03-17T11:38:18.432Z,1833.00
2023-03-17T11:39:18.327Z,1859.00
2023-03-17T11:40:18.278Z,1896.00
2023-03-17T11:41:18.253Z,1918.00
2023-03-17T11:42:18.241Z,1957.00
2023-03-17T11:43:18.163Z,1934.00
2023-03-17T11:44:18.121Z,1912.00
2023-03-17T11:45:18.071Z,1823.00
2023-03-17T11:46:18.090Z,1528.00
2023-03-17T11:47:18.035Z,1374.00
2023-03-17T11:48:18.009Z,1335.00
2023-03-17T11:49:17.917Z,1297.00
2023-03-17T11:50:17.935Z,1273.00
2023-03-17T11:51:17.849Z,1238.00
2023-03-17T11:52:17.807Z,1161.00
2023-03-17T11:53:17.801Z,1141.00
2023-03-17T11:54:17.844Z,1133.00
2023-03-17T12:11:17.870Z,983.00
2023-03-17T14:44:11.619Z,764.00
2023-03-17T14:45:11.585Z,762.00
2023-03-17T14:46:11.610Z,757.00
2023-03-17T14:47:12.242Z,757.00
2023-03-17T14:48:11.484Z,754.00
2023-03-17T14:49:11.455Z,751.00
2023-03-17T14:50:11.456Z,751.00
2023-03-17T14:51:11.386Z,751.00
2023-03-17T14:52:11.345Z,751.00
2023-03-17T14:53:11.320Z,747.00
2023-03-17T14:54:11.286Z,747.00
2023-03-17T14:55:11.245Z,744.00
2023-03-17T14:56:11.222Z,742.00
2023-03-17T14:57:11.179Z,742.00
2023-03-17T14:58:11.149Z,742.00
2023-03-17T14:59:11.130Z,738.00
2023-03-17T15:00:11.075Z,738.00
2023-03-17T15:01:11.070Z,737.00
2023-03-17T15:02:11.022Z,736.00
2023-03-17T15:03:10.957Z,735.00
2023-03-17T15:04:10.945Z,733.00
2023-03-17T15:05:10.922Z,736.00
2023-03-17T15:06:11.054Z,735.00
2023-03-17T15:07:10.836Z,732.00
2023-03-17T15:08:10.807Z,734.00
2023-03-17T15:09:10.778Z,733.00
2023-03-17T15:10:10.744Z,731.00
2023-03-17T15:11:10.706Z,729.00
2023-03-17T15:12:10.732Z,727.00
2023-03-17T15:13:10.637Z,726.00
2023-03-17T15:14:10.576Z,724.00
2023-03-17T15:15:10.544Z,724.00
2023-03-17T15:16:10.502Z,723.00
2023-03-17T15:17:10.488Z,721.00
2023-03-17T15:18:10.459Z,718.00
2023-03-17T15:19:10.401Z,718.00
2023-03-17T15:20:10.381Z,716.00
2023-03-17T15:21:10.352Z,715.00
2023-03-17T15:22:10.303Z,714.00
2023-03-17T15:23:10.247Z,714.00
2023-03-17T15:24:10.252Z,711.00
2023-03-17T15:25:10.208Z,712.00
2023-03-17T15:26:10.179Z,711.00
2023-03-17T15:27:10.100Z,707.00
2023-03-17T15:28:10.088Z,708.00
2023-03-17T15:29:10.038Z,709.00
2023-03-17T15:30:09.986Z,711.00
2023-03-17T15:31:10.035Z,711.00
2023-03-17T15:32:09.913Z,709.00
2023-03-17T15:33:09.909Z,706.00
2023-03-17T15:34:09.853Z,704.00
2023-03-17T15:35:09.830Z,702.00
2023-03-17T15:36:11.355Z,702.00
2023-03-17T15:37:09.811Z,696.00
2023-03-17T15:38:09.749Z,692.00
2023-03-17T15:39:09.686Z,690.00
2023-03-17T15:40:09.668Z,689.00
2023-03-17T15:41:09.616Z,687.00
2023-03-17T15:42:09.608Z,688.00
2023-03-17T15:43:09.555Z,685.00
2023-03-17T15:44:09.525Z,685.00
2023-03-17T15:45:09.495Z,686.00
2023-03-17T15:46:09.519Z,683.00
2023-03-17T15:47:09.429Z,683.00
2023-03-17T15:48:09.390Z,681.00
2023-03-17T15:49:09.330Z,680.00
2023-03-17T15:50:09.865Z,680.00
2023-03-17T15:51:09.296Z,677.00
2023-03-17T15:52:09.235Z,676.00
2023-03-17T15:53:09.191Z,676.00
2023-03-17T15:54:09.212Z,677.00
2023-03-17T15:55:09.092Z,674.00
2023-03-17T15:56:09.117Z,674.00
2023-03-17T15:57:09.075Z,672.00
2023-03-17T15:58:09.041Z,669.00
2023-03-17T15:59:08.928Z,667.00
2023-03-17T16:00:08.894Z,669.00
2023-03-17T16:01:08.889Z,670.00
2023-03-17T16:02:08.831Z,670.00
2023-03-17T16:03:08.796Z,667.00
2023-03-17T16:04:08.798Z,668.00
2023-03-17T16:05:08.731Z,668.00
2023-03-17T16:06:08.702Z,668.00
2023-03-17T16:07:08.650Z,667.00
2023-03-17T16:08:08.605Z,665.00
2023-03-17T16:09:08.573Z,665.00
2023-03-17T16:10:08.550Z,663.00
2023-03-17T16:11:08.500Z,659.00
2023-03-17T16:12:08.494Z,659.00
2023-03-17T16:13:08.438Z,656.00
2023-03-17T16:14:08.403Z,656.00
2023-03-17T16:15:20.293Z,654.00
2023-03-17T16:16:09.328Z,650.00
2023-03-17T16:17:08.308Z,649.00
2023-03-17T16:18:08.242Z,649.00
2023-03-17T16:19:08.207Z,646.00
2023-03-17T16:20:08.185Z,644.00
2023-03-17T16:21:08.141Z,642.00
2023-03-17T16:22:08.117Z,641.00
2023-03-17T16:23:08.087Z,643.00
2023-03-17T16:24:08.040Z,641.00
2023-03-17T16:25:08.012Z,637.00
2023-03-17T16:26:15.641Z,634.00
2023-03-17T16:27:08.966Z,632.00
2023-03-17T16:28:07.919Z,630.00
2023-03-17T16:29:07.884Z,630.00
2023-03-17T16:30:07.881Z,629.00
2023-03-17T16:31:07.857Z,630.00
2023-03-17T16:32:07.838Z,628.00
2023-03-17T16:33:07.803Z,626.00
2023-03-17T16:34:07.751Z,623.00
2023-03-17T21:06:59.602Z,445.00
2023-03-17T21:07:59.599Z,445.00
2023-03-17T21:08:59.544Z,445.00
2023-03-17T21:09:59.530Z,448.00
2023-03-17T21:10:59.520Z,446.00
2023-03-17T21:11:59.484Z,446.00
2023-03-17T21:12:59.462Z,444.00
2023-03-17T21:13:59.449Z,444.00
2023-03-17T21:14:59.441Z,445.00
2023-03-17T21:15:59.426Z,445.00
2023-03-17T21:16:59.364Z,448.00
2023-03-17T21:17:59.322Z,449.00
2023-03-17T21:18:59.324Z,450.00
2023-03-17T21:19:59.277Z,451.00
2023-03-17T21:20:59.261Z,450.00
2023-03-17T21:21:59.219Z,449.00
2023-03-17T21:22:59.190Z,448.00
2023-03-17T21:23:59.160Z,447.00
2023-03-17T21:24:59.134Z,449.00
2023-03-17T21:25:59.130Z,448.00
2023-03-17T21:26:59.090Z,446.00
2023-03-17T21:27:59.060Z,446.00
2023-03-17T21:28:59.035Z,447.00
2023-03-17T21:29:59.005Z,445.00
2023-03-17T21:30:59.005Z,445.00
2023-03-17T21:31:58.968Z,443.00
2023-03-17T21:32:58.992Z,445.00
2023-03-17T21:33:58.916Z,444.00
2023-03-17T21:34:58.894Z,444.00
2023-03-17T21:35:58.891Z,443.00
2023-03-17T21:36:58.847Z,444.00
2023-03-17T21:37:58.830Z,445.00
2023-03-17T21:38:58.811Z,445.00
2023-03-17T21:39:58.773Z,446.00
2023-03-17T21:40:58.773Z,446.00
2023-03-17T21:41:58.751Z,445.00
2023-03-17T21:42:58.716Z,445.00
2023-03-17T21:43:58.697Z,448.00
2023-03-17T21:44:58.676Z,444.00
2023-03-17T21:45:58.719Z,441.00
2023-03-17T21:46:58.683Z,440.00
2023-03-17T21:47:58.629Z,440.00
2023-03-17T21:48:58.600Z,437.00
2023-03-17T21:49:58.548Z,438.00
2023-03-17T21:50:58.550Z,441.00
2023-03-17T21:51:58.521Z,440.00
2023-03-17T21:52:58.483Z,442.00
2023-03-17T21:53:58.451Z,444.00
2023-03-17T21:54:58.429Z,444.00
2023-03-17T21:55:58.420Z,444.00
2023-03-17T21:56:58.404Z,445.00
2023-03-17T21:57:58.352Z,445.00
2023-03-17T21:58:58.328Z,444.00
2023-03-17T21:59:58.293Z,444.00
2023-03-17T22:00:58.322Z,444.00
2023-03-17T22:01:58.262Z,442.00
2023-03-17T22:03:00.349Z,440.00
2023-03-17T22:03:58.370Z,443.00
2023-03-17T22:04:58.200Z,442.00
2023-03-17T22:05:58.165Z,440.00
2023-03-17T22:06:58.162Z,440.00
2023-03-17T22:07:58.133Z,438.00
2023-03-17T22:08:58.097Z,439.00
2023-03-17T22:09:58.077Z,439.00
2023-03-17T22:10:58.065Z,438.00
2023-03-17T22:11:58.035Z,438.00
2023-03-17T22:12:57.999Z,438.00
2023-03-17T22:13:57.968Z,439.00
2023-03-17T22:14:57.964Z,436.00
2023-03-17T22:15:57.940Z,435.00
2023-03-17T22:16:57.922Z,437.00
2023-03-17T22:17:57.875Z,436.00
2023-03-17T22:18:57.849Z,436.00
2023-03-17T22:19:57.839Z,435.00
2023-03-17T22:20:57.884Z,434.00
2023-03-17T22:21:57.837Z,433.00
2023-03-17T22:22:57.776Z,433.00
2023-03-17T22:23:57.761Z,430.00
2023-03-17T22:24:57.749Z,430.00
2023-03-17T22:25:57.713Z,430.00
